createdAt,value
2022-10-14T00:01:24.674Z,100731.00
2022-10-14T00:03:53.335Z,100733.69
2022-10-14T00:06:32.381Z,100731.19
2022-10-14T00:09:09.567Z,100721.34
2022-10-14T00:11:38.245Z,100726.91
2022-10-14T00:14:14.238Z,100725.38
2022-10-14T00:16:45.733Z,100729.25
2022-10-14T00:19:14.646Z,100726.56
2022-10-14T00:21:45.653Z,100731.97
2022-10-14T00:24:16.723Z,100724.19
2022-10-14T00:26:45.374Z,100726.53
2022-10-14T00:29:18.846Z,100724.66
2022-10-14T00:31:47.113Z,100717.88
2022-10-14T00:34:16.090Z,100716.66
2022-10-14T00:36:44.677Z,100717.47
2022-10-14T00:39:12.240Z,100716.28
2022-10-14T00:41:40.225Z,100709.50
2022-10-14T00:44:13.066Z,100709.28
2022-10-14T00:46:48.155Z,100700.47
2022-10-14T00:49:25.034Z,100704.81
2022-10-14T00:52:04.028Z,100702.19
2022-10-14T00:54:41.731Z,100696.44
2022-10-14T00:57:11.433Z,100696.34
2022-10-14T00:59:39.405Z,100703.09
2022-10-14T01:02:06.738Z,100703.25
2022-10-14T01:04:38.365Z,100706.09
2022-10-14T01:07:53.127Z,100694.59
2022-10-14T01:10:50.767Z,100713.25
2022-10-14T01:13:34.771Z,100700.19
2022-10-14T01:16:36.901Z,100693.06
2022-10-14T01:19:43.490Z,100691.31
2022-10-14T01:22:56.997Z,100690.19
2022-10-14T01:25:58.945Z,100693.63
2022-10-14T01:28:34.549Z,100691.91
2022-10-14T01:31:12.242Z,100683.41
2022-10-14T01:33:46.181Z,100682.34
2022-10-14T01:36:34.372Z,100686.81
2022-10-14T01:39:20.140Z,100682.72
2022-10-14T01:41:57.487Z,100683.72
2022-10-14T01:44:30.365Z,100681.72
2022-10-14T01:47:02.188Z,100683.41
2022-10-14T01:49:46.037Z,100679.72
2022-10-14T01:52:27.558Z,100682.09
2022-10-14T01:55:03.208Z,100684.22
2022-10-14T01:57:38.442Z,100680.84
2022-10-14T02:00:06.973Z,100681.53
2022-10-14T02:02:38.474Z,100676.19
2022-10-14T02:06:08.251Z,100676.63
2022-10-14T02:09:02.570Z,100669.47
2022-10-14T02:12:15.679Z,100662.91
2022-10-14T02:15:03.028Z,100671.22
2022-10-14T02:18:09.858Z,100664.97
2022-10-14T02:21:22.995Z,100662.34
2022-10-14T02:24:07.515Z,100669.28
2022-10-14T02:26:37.676Z,100673.84
2022-10-14T02:29:06.422Z,100682.94
2022-10-14T02:31:41.034Z,100684.16
2022-10-14T02:34:21.592Z,100681.28
2022-10-14T02:36:50.693Z,100679.63
2022-10-14T02:39:31.241Z,100682.88
2022-10-14T02:41:58.647Z,100676.16
2022-10-14T02:44:28.537Z,100684.94
2022-10-14T02:46:59.469Z,100686.34
2022-10-14T02:49:26.616Z,100683.63
2022-10-14T02:51:53.519Z,100680.94
2022-10-14T02:54:20.507Z,100690.56
2022-10-14T02:56:47.253Z,100687.00
2022-10-14T02:59:14.375Z,100679.59
2022-10-14T03:01:41.148Z,100675.88
2022-10-14T03:04:08.011Z,100681.28
2022-10-14T03:06:37.957Z,100681.13
2022-10-14T03:09:04.751Z,100680.97
2022-10-14T03:11:31.591Z,100676.56
2022-10-14T03:13:58.422Z,100677.09
2022-10-14T03:16:28.056Z,100672.72
2022-10-14T03:18:57.996Z,100671.69
2022-10-14T03:21:24.823Z,100670.69
2022-10-14T03:23:52.661Z,100672.38
2022-10-14T03:26:19.667Z,100674.94
2022-10-14T03:28:49.594Z,100672.38
2022-10-14T03:31:16.644Z,100674.38
2022-10-14T03:33:49.006Z,100686.06
2022-10-14T03:36:15.787Z,100680.66
2022-10-14T03:38:42.592Z,100671.88
2022-10-14T03:41:09.342Z,100677.41
2022-10-14T03:43:36.240Z,100668.97
2022-10-14T03:46:03.024Z,100673.69
2022-10-14T03:48:29.709Z,100664.75
2022-10-14T03:50:56.649Z,100664.06
2022-10-14T03:53:23.348Z,100664.06
2022-10-14T03:55:50.094Z,100672.00
2022-10-14T03:58:19.856Z,100671.19
2022-10-14T04:00:52.104Z,100671.47
2022-10-14T04:03:18.917Z,100668.78
2022-10-14T04:05:45.951Z,100664.06
2022-10-14T04:08:12.847Z,100670.34
2022-10-14T04:10:39.809Z,100662.38
2022-10-14T04:13:06.633Z,100664.94
2022-10-14T04:15:36.540Z,100674.03
2022-10-14T04:18:06.147Z,100664.53
2022-10-14T04:20:33.514Z,100658.16
2022-10-14T04:23:00.740Z,100659.97
2022-10-14T04:25:29.863Z,100661.84
2022-10-14T04:27:56.816Z,100657.59
2022-10-14T04:30:23.637Z,100663.69
2022-10-14T04:32:53.553Z,100647.50
2022-10-14T04:35:20.363Z,100656.44
2022-10-14T04:37:47.666Z,100649.66
2022-10-14T04:40:14.690Z,100644.44
2022-10-14T04:42:42.629Z,100646.44
2022-10-14T04:45:10.176Z,100652.84
2022-10-14T04:47:36.981Z,100646.59
2022-10-14T05:33:13.002Z,100627.66
2022-10-14T05:43:44.954Z,100636.06
2022-10-14T05:49:05.593Z,100629.28
2022-10-14T05:51:33.660Z,100631.00
2022-10-14T05:54:00.501Z,100628.44
2022-10-14T05:56:27.533Z,100626.44
2022-10-14T06:07:03.288Z,100613.41
2022-10-14T06:20:17.472Z,100606.63
2022-10-14T07:35:43.329Z,100632.44
2022-10-14T07:38:10.527Z,100627.88
2022-10-14T07:40:37.252Z,100623.16
2022-10-14T07:43:03.983Z,100624.69
2022-10-14T07:45:35.314Z,100622.16
2022-10-14T07:48:02.588Z,100628.25
2022-10-14T07:50:29.861Z,100621.81
2022-10-14T07:53:00.892Z,100630.47
2022-10-14T07:55:30.970Z,100632.00
2022-10-14T07:57:58.305Z,100632.34
2022-10-14T08:00:27.998Z,100623.22
2022-10-14T08:02:54.740Z,100624.56
2022-10-14T08:05:38.556Z,100636.25
2022-10-14T08:08:06.760Z,100632.06
2022-10-14T08:10:33.900Z,100640.53
2022-10-14T08:13:00.735Z,100630.41
2022-10-14T08:15:29.901Z,100631.09
2022-10-14T08:17:57.205Z,100624.34
2022-10-14T08:20:23.843Z,100626.56
2022-10-14T08:22:50.791Z,100630.63
2022-10-14T08:25:17.716Z,100636.03
2022-10-14T08:27:46.201Z,100633.66
2022-10-14T08:30:13.040Z,100630.78
2022-10-14T08:32:39.794Z,100625.91
2022-10-14T08:35:07.976Z,100640.78
2022-10-14T08:37:34.863Z,100634.34
2022-10-14T08:40:05.848Z,100629.13
2022-10-14T08:45:56.300Z,100635.22
2022-10-14T08:48:34.367Z,100635.38
2022-10-14T08:51:13.396Z,100634.88
2022-10-14T08:53:57.303Z,100623.19
2022-10-14T08:56:24.659Z,100630.16
2022-10-14T08:59:14.195Z,100625.72
2022-10-14T09:01:56.919Z,100630.63
2022-10-14T09:04:23.875Z,100627.25
2022-10-14T09:06:55.194Z,100627.09
2022-10-14T09:09:43.568Z,100627.44
2022-10-14T09:12:21.734Z,100619.13
2022-10-14T09:15:25.285Z,100617.78
2022-10-14T09:18:55.598Z,100610.84
2022-10-14T09:21:51.694Z,100605.56
2022-10-14T09:24:36.234Z,100613.53
2022-10-14T09:27:21.994Z,100608.47
2022-10-14T09:29:57.274Z,100621.00
2022-10-14T09:32:36.516Z,100614.41
2022-10-14T09:35:17.852Z,100622.00
2022-10-14T09:37:46.895Z,100611.66
2022-10-14T09:40:44.170Z,100608.81
2022-10-14T09:43:10.721Z,100613.88
2022-10-14T09:46:01.940Z,100612.84
2022-10-14T09:48:53.722Z,100605.84
2022-10-14T09:51:32.641Z,100599.75
2022-10-14T09:54:05.391Z,100602.00
2022-10-14T09:56:42.739Z,100589.44
2022-10-14T09:59:23.058Z,100590.47
2022-10-14T10:02:00.510Z,100591.63
2022-10-14T10:04:47.050Z,100586.13
2022-10-14T10:07:34.334Z,100589.59
2022-10-14T10:10:38.559Z,100586.13
2022-10-14T10:13:22.873Z,100583.69
2022-10-14T10:16:00.957Z,100566.09
2022-10-14T10:18:28.766Z,100572.91
2022-10-14T10:21:16.979Z,100573.28
2022-10-14T10:24:01.680Z,100569.19
2022-10-14T10:26:33.861Z,100567.47
2022-10-14T10:29:05.613Z,100563.94
2022-10-14T10:32:01.516Z,100562.47
2022-10-14T10:34:58.816Z,100560.69
2022-10-14T10:37:38.801Z,100558.31
2022-10-14T10:40:34.605Z,100554.97
2022-10-14T10:43:33.949Z,100556.59
2022-10-14T10:47:02.511Z,100550.50
2022-10-14T10:50:15.798Z,100552.88
2022-10-14T10:53:14.216Z,100551.25
2022-10-14T10:56:05.984Z,100552.16
2022-10-14T10:58:55.086Z,100546.19
2022-10-14T11:02:04.753Z,100545.72
2022-10-14T11:04:52.857Z,100543.94
2022-10-14T11:08:04.416Z,100542.44
2022-10-14T11:11:29.355Z,100542.41
2022-10-14T11:14:25.295Z,100540.09
2022-10-14T11:17:27.650Z,100542.53
2022-10-14T11:20:05.455Z,100540.38
2022-10-14T11:23:07.581Z,100541.38
2022-10-14T11:26:13.676Z,100540.22
2022-10-14T11:28:49.610Z,100531.41
2022-10-14T11:31:52.856Z,100523.16
2022-10-14T11:34:51.777Z,100522.69
2022-10-14T11:38:24.156Z,100519.19
2022-10-14T11:41:32.006Z,100519.28
2022-10-14T11:44:21.532Z,100522.53
2022-10-14T11:46:58.359Z,100523.63
2022-10-14T11:50:15.877Z,100525.59
2022-10-14T11:52:55.278Z,100520.25
2022-10-14T11:55:29.099Z,100521.03
2022-10-14T11:58:23.137Z,100523.81
2022-10-14T12:01:16.722Z,100526.69
2022-10-14T12:04:19.872Z,100517.81
2022-10-14T12:07:06.697Z,100509.28
2022-10-14T12:09:48.283Z,100510.47
2022-10-14T12:12:23.347Z,100497.16
2022-10-14T12:15:01.162Z,100505.19
2022-10-14T12:17:53.207Z,100497.19
2022-10-14T12:20:53.715Z,100505.94
2022-10-14T12:23:48.819Z,100505.53
2022-10-14T12:26:24.474Z,100496.66
2022-10-14T12:28:54.275Z,100500.56
2022-10-14T12:31:39.503Z,100491.63
2022-10-14T12:34:14.882Z,100493.13
2022-10-14T12:36:50.855Z,100487.38
2022-10-14T12:39:17.577Z,100486.78
2022-10-14T12:42:11.043Z,100492.00
2022-10-14T12:44:57.509Z,100484.59
2022-10-14T12:47:36.439Z,100483.44
2022-10-14T12:50:25.483Z,100488.38
2022-10-14T12:53:05.698Z,100486.63
2022-10-14T12:55:50.554Z,100477.63
2022-10-14T12:58:37.254Z,100471.63
2022-10-14T13:01:16.655Z,100467.50
2022-10-14T13:04:08.281Z,100460.25
2022-10-14T13:06:43.009Z,100467.56
2022-10-14T13:09:12.936Z,100460.50
2022-10-14T13:12:09.165Z,100459.94
2022-10-14T13:15:34.771Z,100457.91
2022-10-14T13:19:03.090Z,100458.47
2022-10-14T13:21:36.293Z,100458.38
2022-10-14T13:24:17.989Z,100450.69
2022-10-14T13:26:55.225Z,100455.88
2022-10-14T13:29:54.529Z,100445.38
2022-10-14T13:32:57.719Z,100454.22
2022-10-14T13:35:51.729Z,100451.66
2022-10-14T13:38:23.953Z,100453.03
2022-10-14T13:40:58.100Z,100444.97
2022-10-14T13:43:43.679Z,100429.66
2022-10-14T13:46:22.678Z,100428.91
2022-10-14T13:48:59.541Z,100428.47
2022-10-14T13:52:04.451Z,100419.66
2022-10-14T13:54:32.391Z,100414.53
2022-10-14T13:57:53.596Z,100414.97
2022-10-14T14:00:42.251Z,100415.19
2022-10-14T14:03:38.777Z,100410.09
2022-10-14T14:06:19.696Z,100406.81
2022-10-14T14:09:04.450Z,100403.78
2022-10-14T14:11:37.546Z,100398.91
2022-10-14T14:14:35.745Z,100403.34
2022-10-14T14:17:12.527Z,100396.00
2022-10-14T14:19:48.668Z,100397.84
2022-10-14T14:22:30.624Z,100395.44
2022-10-14T14:25:36.068Z,100386.94
2022-10-14T14:28:08.302Z,100385.31
2022-10-14T14:30:39.039Z,100381.22
2022-10-14T14:33:24.228Z,100382.81
2022-10-14T14:36:12.056Z,100389.34
2022-10-14T14:39:02.523Z,100370.59
2022-10-14T14:41:32.306Z,100372.41
2022-10-14T14:44:24.587Z,100372.78
2022-10-14T14:46:57.222Z,100371.03
2022-10-14T14:49:35.260Z,100367.28
2022-10-14T14:52:03.779Z,100369.44
2022-10-14T14:54:31.225Z,100358.19
2022-10-14T14:57:00.995Z,100360.41
2022-10-14T14:59:36.785Z,100355.00
2022-10-14T15:02:16.780Z,100346.66
2022-10-14T15:04:44.697Z,100344.13
2022-10-14T15:07:21.275Z,100350.50
2022-10-14T15:10:04.350Z,100338.31
2022-10-14T15:12:41.799Z,100338.34
2022-10-14T15:15:34.591Z,100331.78
2022-10-14T15:18:21.453Z,100333.78
2022-10-14T15:20:49.451Z,100341.25
2022-10-14T15:23:42.938Z,100346.50
2022-10-14T15:26:27.877Z,100339.34
2022-10-14T15:32:01.765Z,100336.91
2022-10-14T15:34:29.140Z,100328.41
2022-10-14T15:36:56.761Z,100332.63
2022-10-14T15:39:25.684Z,100321.56
2022-10-14T15:41:52.463Z,100325.94
2022-10-14T15:44:19.222Z,100327.56
2022-10-14T15:47:05.953Z,100328.47
2022-10-14T15:49:42.856Z,100324.91
2022-10-14T15:52:20.569Z,100325.47
2022-10-14T15:54:50.613Z,100324.13
2022-10-14T15:57:17.553Z,100309.81
2022-10-14T15:59:44.260Z,100317.41
2022-10-14T16:02:23.314Z,100310.31
2022-10-14T16:05:15.063Z,100308.44
2022-10-14T16:07:40.002Z,100305.25
2022-10-14T16:10:11.612Z,100310.34
2022-10-14T16:12:38.469Z,100301.88
2022-10-14T16:15:28.235Z,100303.72
2022-10-14T16:17:54.942Z,100302.56
2022-10-14T16:20:22.563Z,100295.13
2022-10-14T16:22:50.749Z,100304.75
2022-10-14T16:25:33.550Z,100306.59
2022-10-14T16:28:00.596Z,100296.78
2022-10-14T16:30:28.104Z,100302.16
2022-10-14T16:32:55.594Z,100291.19
2022-10-14T16:35:22.215Z,100300.78
2022-10-14T16:37:49.031Z,100295.03
2022-10-14T16:40:16.147Z,100286.44
2022-10-14T16:42:42.839Z,100282.53
2022-10-14T16:45:10.663Z,100278.16
2022-10-14T16:47:38.165Z,100283.16
2022-10-14T16:50:07.495Z,100289.69
2022-10-14T16:52:54.846Z,100283.47
2022-10-14T16:55:25.392Z,100285.00
2022-10-14T16:57:52.180Z,100282.81
2022-10-14T17:02:52.555Z,100275.16
2022-10-14T17:05:19.233Z,100261.84
2022-10-14T17:07:49.194Z,100268.28
2022-10-14T17:10:16.323Z,100270.13
2022-10-14T17:12:43.206Z,100267.44
2022-10-14T17:15:10.759Z,100267.25
2022-10-14T17:17:38.957Z,100263.53
2022-10-14T17:20:10.078Z,100261.00
2022-10-14T17:22:36.882Z,100262.88
2022-10-14T17:46:47.221Z,100238.00
2022-10-14T17:49:15.949Z,100234.97
2022-10-14T18:10:33.398Z,100221.75
2022-10-14T18:13:00.574Z,100214.31
2022-10-14T18:45:10.985Z,100177.84
2022-10-14T18:47:40.338Z,100183.13
2022-10-14T19:11:48.802Z,100150.59
2022-10-14T19:25:02.692Z,100142.47
2022-10-14T19:32:52.200Z,100136.03
2022-10-14T19:43:25.358Z,100112.28
2022-10-14T19:59:18.186Z,100079.03
2022-10-14T20:01:44.901Z,100070.56
2022-10-14T20:04:12.199Z,100066.91
2022-10-14T20:06:40.184Z,100061.88
2022-10-14T20:09:08.978Z,100053.44
2022-10-14T20:11:35.917Z,100051.94
2022-10-14T20:14:02.613Z,100051.63
2022-10-14T20:16:29.349Z,100043.38
2022-10-14T20:18:56.497Z,100048.97
2022-10-14T20:21:30.467Z,100041.88
2022-10-14T20:23:59.186Z,100046.75
2022-10-14T20:28:54.356Z,100037.13
2022-10-14T20:31:25.354Z,100033.88
2022-10-14T20:33:52.469Z,100029.59
2022-10-14T20:36:22.022Z,100032.44
2022-10-14T20:38:50.557Z,100028.50
2022-10-14T20:41:31.889Z,100018.00
2022-10-14T20:43:58.660Z,100020.00
2022-10-14T20:46:25.409Z,100019.66
2022-10-14T20:49:01.665Z,100021.84
2022-10-14T20:51:31.651Z,100015.88
2022-10-14T20:54:05.050Z,100019.88
2022-10-14T20:56:35.720Z,100022.03
2022-10-14T20:59:13.247Z,100015.25
2022-10-14T21:01:40.114Z,100017.41
2022-10-14T21:04:07.997Z,100014.91
2022-10-14T21:06:39.016Z,99999.00
2022-10-14T21:09:08.496Z,100002.25
2022-10-14T21:11:41.553Z,99999.94
2022-10-14T21:14:58.241Z,100002.34
2022-10-14T21:17:25.133Z,99994.78
2022-10-14T21:20:00.568Z,99990.38
2022-10-14T21:22:27.415Z,99997.66
2022-10-14T21:24:57.099Z,99997.66
2022-10-14T21:27:24.166Z,99995.78
2022-10-14T21:32:43.190Z,99989.38
2022-10-14T21:35:09.921Z,99991.03
2022-10-14T21:37:36.707Z,99981.06
2022-10-14T21:40:24.605Z,99986.28
2022-10-14T21:42:54.428Z,99979.19
2022-10-14T21:45:52.608Z,99979.84
2022-10-14T21:48:19.848Z,99969.91
2022-10-14T21:51:18.713Z,99965.66
2022-10-14T21:53:54.604Z,99971.06
2022-10-14T21:56:22.594Z,99962.97
2022-10-14T21:58:49.646Z,99962.13
2022-10-14T22:01:28.089Z,99953.84
2022-10-14T22:04:03.754Z,99945.91
2022-10-14T22:06:34.500Z,99947.78
2022-10-14T22:09:06.946Z,99948.44
2022-10-14T22:11:40.228Z,99947.78
2022-10-14T22:14:14.088Z,99945.25
2022-10-14T22:16:41.063Z,99940.88
2022-10-14T22:19:11.182Z,99933.59
2022-10-14T22:22:53.128Z,99933.22
2022-10-14T22:28:42.737Z,99937.78
2022-10-14T22:31:51.894Z,99916.97
2022-10-14T22:34:25.455Z,99923.91
2022-10-14T22:36:58.970Z,99917.63
2022-10-14T22:40:09.386Z,99907.03
2022-10-14T22:42:37.966Z,99909.34
2022-10-14T22:45:08.196Z,99905.81
2022-10-14T22:47:35.074Z,99906.66
2022-10-14T22:50:01.917Z,99907.47
2022-10-14T22:53:27.619Z,99906.81
2022-10-14T22:56:23.347Z,99905.81
2022-10-14T22:59:27.535Z,99916.47
2022-10-14T23:02:12.532Z,99901.06
2022-10-14T23:04:39.243Z,99908.97
2022-10-14T23:07:13.609Z,99906.25
2022-10-14T23:09:40.390Z,99907.13
2022-10-14T23:12:10.268Z,99906.91
2022-10-14T23:14:37.049Z,99905.09
2022-10-14T23:17:04.033Z,99897.59
2022-10-14T23:19:30.811Z,99894.72
2022-10-14T23:22:04.036Z,99888.66
2022-10-14T23:24:30.870Z,99884.06
2022-10-14T23:27:00.652Z,99884.06
2022-10-14T23:29:27.426Z,99879.53
2022-10-14T23:31:54.083Z,99882.03
2022-10-14T23:34:20.891Z,99878.66
2022-10-14T23:36:47.707Z,99875.13
2022-10-14T23:39:15.872Z,99884.06
2022-10-14T23:41:54.675Z,99877.81
2022-10-14T23:44:23.948Z,99878.66
2022-10-14T23:46:50.792Z,99878.66
2022-10-14T23:49:26.340Z,99864.28
2022-10-14T23:52:33.546Z,99862.63
2022-10-14T23:55:00.400Z,99874.28
2022-10-14T23:57:27.311Z,99873.06
2022-10-14T23:59:54.320Z,99863.94
